Terminal Aerodrome Forecast
Issued by NWS

Home | Current Version | Previous Version | Graphics & Text | Print | Product List | Glossary On
Versions: 1 2 3 4 5 6 7 8 9 10 11 12 13 14 15 16 17 18 19
000
FTUS43 KPAH 171644 AAB
TAFOWB
TAF AMD
KOWB 171644Z 1717/1812 22012G19KT P6SM VCSH SCT030 BKN040
      TEMPO 1717/1720 4SM -TSRA BKN025CB
     FM180200 27004KT P6SM SKC=

USA.gov is the U.S. government's official web portal to all federal, state and local government web resources and services.